Terminal Aerodrome Forecast
Issued by NWS Tampa Bay Area, FL

Home | Current Version | Previous Version | Text Only | Print | Product List | Glossary On
Versions: 1 2 3 4 5 6 7 8 9 10 11 12 13 14
854
FTUS42 KTBW 222122 AAA
TAFSRQ
TAF AMD
KSRQ 222122Z 2221/2318 15013G20KT P6SM VCSH SCT030 BKN110
      TEMPO 2221/2222 5SM SHRA BKN020 BKN100
     FM230000 31007KT P6SM SCT150 BKN250
     FM230600 30005KT P6SM BKN025
     FM231200 VRB03KT P6SM SCT015 SCT200
     FM231700 33007KT P6SM SCT020 BKN070=

USA.gov is the U.S. government's official web portal to all federal, state and local government web resources and services.